Seattle, Washington
Traffic Map
Current Weather Conditions
Seattle, Washington
Overcast Light Rain
Overcast
10°
Feels Like: 10°
Wind Chill: 10° Ceiling: 3000
Heat Index: 10° Visibility: 7mi
Dew Point: Wind: 6mph
Humidity: 83% Direction: 140° (SE)
Pressure: 29.83in Gusts: 0mph
Raw Report DataKBFI 191153Z 14005KT 7SM -RA FEW023 BKN030 OVC040 10/07 A2983 RMK AO2 RAB06 SLP100 P0001 60028 70066 T01000072 10106 20089 51009
Traffic Incident Summary
Active as of:
Severity:
Category:
InformationThere was an issue retrieving the traffic information for this location. Please try a different location or try again shortly.
Advertisements
Track Severe Weather on mobile